createdAt,value
2023-03-02T00:00:25.872Z,53.10
2023-03-02T00:02:52.943Z,53.10
2023-03-02T00:05:41.160Z,53.00
2023-03-02T00:08:09.927Z,53.10
2023-03-02T00:10:38.708Z,53.20
2023-03-02T00:13:05.917Z,53.20
2023-03-02T00:15:33.063Z,53.20
2023-03-02T00:18:05.810Z,53.10
2023-03-02T00:20:34.713Z,53.10
2023-03-02T00:23:01.767Z,53.20
2023-03-02T00:25:28.902Z,53.20
2023-03-02T00:27:56.154Z,53.20
2023-03-02T00:30:26.266Z,53.20
2023-03-02T00:32:53.409Z,53.30
2023-03-02T00:35:20.514Z,53.40
2023-03-02T00:37:48.323Z,53.40
2023-03-02T00:40:15.796Z,53.40
2023-03-02T00:42:42.719Z,53.50
2023-03-02T00:45:10.047Z,53.40
2023-03-02T00:47:37.875Z,53.50
2023-03-02T00:50:23.669Z,53.50
2023-03-02T00:52:50.815Z,53.60
2023-03-02T00:55:17.803Z,53.60
2023-03-02T00:57:44.855Z,53.50
2023-03-02T01:00:12.310Z,53.50
2023-03-02T01:02:44.195Z,53.60
2023-03-02T01:05:15.101Z,53.60
2023-03-02T01:07:48.042Z,53.60
2023-03-02T01:10:18.081Z,53.60
2023-03-02T01:13:03.736Z,53.70
2023-03-02T01:15:30.876Z,53.70
2023-03-02T01:17:58.733Z,53.60
2023-03-02T01:20:25.644Z,53.80
2023-03-02T01:22:52.674Z,53.50
2023-03-02T01:25:19.833Z,53.70
2023-03-02T01:27:49.583Z,53.70
2023-03-02T01:30:16.943Z,53.70
2023-03-02T01:33:02.573Z,53.90
2023-03-02T01:35:29.587Z,53.90
2023-03-02T01:38:02.362Z,53.70
2023-03-02T01:40:29.418Z,53.70
2023-03-02T01:43:02.788Z,53.80
2023-03-02T01:45:45.601Z,53.90
2023-03-02T01:48:15.596Z,53.90
2023-03-02T01:50:45.475Z,54.00
2023-03-02T01:53:16.876Z,54.00
2023-03-02T01:55:45.892Z,54.10
2023-03-02T01:58:15.440Z,54.10
2023-03-02T02:00:43.380Z,54.10
2023-03-02T02:03:24.773Z,54.90
2023-03-02T02:06:09.880Z,54.10
2023-03-02T02:08:38.498Z,54.10
2023-03-02T02:11:06.740Z,54.10
2023-03-02T02:13:33.744Z,54.00
2023-03-02T02:16:00.988Z,54.10
2023-03-02T02:18:28.267Z,53.90
2023-03-02T02:20:56.343Z,54.00
2023-03-02T02:23:39.829Z,54.10
2023-03-02T02:26:19.018Z,54.20
2023-03-02T02:29:00.693Z,54.20
2023-03-02T02:31:48.470Z,54.30
2023-03-02T02:34:38.691Z,54.20
2023-03-02T02:37:20.312Z,54.20
2023-03-02T02:40:12.682Z,54.20
2023-03-02T02:42:44.402Z,54.20
2023-03-02T02:45:24.907Z,54.30
2023-03-02T02:47:52.510Z,54.30
2023-03-02T02:50:26.878Z,54.20
2023-03-02T02:53:20.338Z,54.20
2023-03-02T02:55:50.392Z,54.20
2023-03-02T02:58:49.075Z,54.10
2023-03-02T03:01:18.883Z,54.20
2023-03-02T03:03:51.944Z,54.20
2023-03-02T03:06:42.669Z,54.30
2023-03-02T03:09:13.227Z,54.30
2023-03-02T03:11:43.560Z,54.20
2023-03-02T03:14:14.093Z,54.30
2023-03-02T03:16:42.997Z,54.40
2023-03-02T03:19:24.028Z,54.40
2023-03-02T03:21:54.241Z,54.50
2023-03-02T03:24:22.264Z,54.30
2023-03-02T03:26:49.333Z,54.30
2023-03-02T03:29:18.359Z,54.20
2023-03-02T03:32:05.307Z,54.30
2023-03-02T03:34:33.161Z,54.30
2023-03-02T03:37:01.916Z,54.50
2023-03-02T03:39:32.212Z,54.40
2023-03-02T03:41:59.255Z,54.30
2023-03-02T03:44:26.217Z,54.20
2023-03-02T03:46:53.492Z,54.20
2023-03-02T03:49:20.498Z,54.30
2023-03-02T03:51:47.674Z,54.30
2023-03-02T03:54:14.953Z,54.30
2023-03-02T03:56:45.094Z,54.30
2023-03-02T03:59:15.918Z,54.40
2023-03-02T04:01:50.242Z,54.40
2023-03-02T04:04:20.649Z,54.50
2023-03-02T04:06:47.623Z,54.50
2023-03-02T04:09:20.366Z,54.40
2023-03-02T04:11:49.946Z,54.50
2023-03-02T04:14:17.885Z,54.50
2023-03-02T04:16:44.956Z,54.40
2023-03-02T04:19:12.902Z,54.30
2023-03-02T04:21:46.413Z,54.20
2023-03-02T04:24:14.614Z,54.50
2023-03-02T04:26:42.864Z,54.40
2023-03-02T04:29:11.020Z,54.40
2023-03-02T04:31:38.131Z,54.40
2023-03-02T04:34:06.177Z,54.40
2023-03-02T04:36:37.016Z,54.50
2023-03-02T04:39:05.654Z,54.60
2023-03-02T04:41:32.719Z,54.60
2023-03-02T04:43:59.756Z,54.60
2023-03-02T04:46:28.210Z,54.60
2023-03-02T04:48:55.669Z,54.70
2023-03-02T04:51:28.838Z,54.60
2023-03-02T04:53:59.504Z,54.80
2023-03-02T04:56:26.560Z,54.70
2023-03-02T04:58:53.886Z,54.70
2023-03-02T05:01:24.131Z,54.80
2023-03-02T05:03:51.783Z,54.70
2023-03-02T05:06:19.529Z,54.70
2023-03-02T05:08:46.495Z,54.60
2023-03-02T05:11:22.458Z,54.50
2023-03-02T05:13:51.392Z,54.60
2023-03-02T05:16:19.043Z,55.20
2023-03-02T05:18:46.449Z,54.50
2023-03-02T05:21:15.198Z,54.60
2023-03-02T05:24:00.959Z,54.70
2023-03-02T05:26:28.085Z,54.60
2023-03-02T05:28:55.938Z,54.60
2023-03-02T05:31:34.956Z,54.60
2023-03-02T05:34:03.369Z,54.80
2023-03-02T05:36:30.627Z,54.70
2023-03-02T05:38:58.382Z,54.70
2023-03-02T05:41:25.485Z,54.70
2023-03-02T05:43:52.852Z,54.70
2023-03-02T05:46:21.973Z,54.70
2023-03-02T05:48:54.887Z,54.80
2023-03-02T05:51:21.971Z,54.70
2023-03-02T05:53:51.889Z,54.70
2023-03-02T05:56:20.842Z,54.70
2023-03-02T05:58:50.432Z,54.80
2023-03-02T06:01:17.489Z,54.90
2023-03-02T06:03:44.378Z,54.70
2023-03-02T06:06:15.123Z,54.80
2023-03-02T06:09:00.459Z,54.90
2023-03-02T06:11:27.526Z,54.80
2023-03-02T06:13:54.507Z,54.80
2023-03-02T06:16:21.671Z,54.90
2023-03-02T06:18:57.388Z,54.90
2023-03-02T06:21:24.360Z,54.90
2023-03-02T06:23:51.300Z,54.90
2023-03-02T06:26:18.247Z,55.00
2023-03-02T06:28:53.858Z,55.00
2023-03-02T06:31:21.863Z,55.70
2023-03-02T06:33:48.908Z,55.20
2023-03-02T06:36:17.107Z,55.10
2023-03-02T06:38:44.227Z,55.20
2023-03-02T06:41:13.818Z,55.20
2023-03-02T06:44:00.762Z,55.10
2023-03-02T06:46:27.835Z,55.20
2023-03-02T06:48:54.817Z,55.10
2023-03-02T06:51:40.045Z,55.10
2023-03-02T06:54:08.281Z,55.20
2023-03-02T06:56:44.022Z,55.20
2023-03-02T06:59:11.108Z,55.30
2023-03-02T07:01:56.771Z,55.40
2023-03-02T07:04:23.767Z,55.50
2023-03-02T07:06:50.946Z,55.50
2023-03-02T07:09:17.926Z,55.60
2023-03-02T07:11:45.158Z,55.60
2023-03-02T07:14:12.304Z,55.70
2023-03-02T07:16:39.570Z,55.80
2023-03-02T07:19:25.783Z,55.90
2023-03-02T07:21:52.756Z,56.00
2023-03-02T07:24:19.854Z,56.00
2023-03-02T07:26:47.106Z,55.90
2023-03-02T07:29:14.138Z,55.90
2023-03-02T07:31:43.646Z,56.10
2023-03-02T07:34:13.358Z,56.00
2023-03-02T07:36:40.393Z,56.20
2023-03-02T07:39:07.402Z,56.30
2023-03-02T07:41:34.760Z,56.30
2023-03-02T07:44:01.847Z,56.30
2023-03-02T07:46:28.805Z,56.50
2023-03-02T07:48:55.816Z,56.60
2023-03-02T07:51:22.793Z,56.60
2023-03-02T07:53:49.674Z,56.70
2023-03-02T07:56:20.519Z,56.70
2023-03-02T07:58:47.715Z,56.80
2023-03-02T08:01:14.651Z,56.70
2023-03-02T08:03:44.231Z,56.70
2023-03-02T08:06:26.197Z,56.80
2023-03-02T08:08:53.799Z,56.80
2023-03-02T08:11:20.754Z,56.70
2023-03-02T08:14:01.424Z,56.70
2023-03-02T08:16:29.673Z,56.90
2023-03-02T08:19:08.940Z,56.90
2023-03-02T08:21:36.059Z,56.70
2023-03-02T08:24:09.660Z,56.70
2023-03-02T08:26:37.731Z,56.80
2023-03-02T08:29:13.508Z,56.70
2023-03-02T08:31:40.613Z,56.80
2023-03-02T08:34:27.083Z,56.70
2023-03-02T08:36:54.551Z,56.80
2023-03-02T08:39:24.474Z,56.80
2023-03-02T08:42:09.637Z,56.90
2023-03-02T08:44:36.808Z,56.90
2023-03-02T08:47:18.815Z,56.90
2023-03-02T08:49:48.019Z,56.80
2023-03-02T08:52:15.472Z,56.80
2023-03-02T08:54:42.841Z,56.80
2023-03-02T08:57:13.228Z,56.80
2023-03-02T08:59:58.877Z,56.80
2023-03-02T09:02:25.972Z,56.80
2023-03-02T09:04:53.085Z,56.70
2023-03-02T09:07:20.451Z,56.60
2023-03-02T09:09:47.342Z,56.70
2023-03-02T09:12:14.375Z,56.60
2023-03-02T09:14:41.288Z,56.50
2023-03-02T09:17:26.797Z,56.50
2023-03-02T09:19:53.926Z,56.40
2023-03-02T09:22:39.273Z,56.40
2023-03-02T09:25:07.261Z,56.40
2023-03-02T09:27:34.274Z,56.50
2023-03-02T09:30:01.211Z,56.50
2023-03-02T09:32:28.286Z,56.40
2023-03-02T09:34:58.398Z,56.30
2023-03-02T09:37:26.058Z,56.20
2023-03-02T09:39:55.700Z,56.30
2023-03-02T09:42:25.371Z,56.30
2023-03-02T09:45:15.095Z,56.20
2023-03-02T09:48:09.491Z,56.30
2023-03-02T09:50:40.507Z,56.20
2023-03-02T09:53:21.161Z,56.20
2023-03-02T09:55:54.141Z,56.00
2023-03-02T09:58:23.287Z,55.90
2023-03-02T10:00:51.824Z,56.00
2023-03-02T10:03:52.695Z,55.90
2023-03-02T10:06:19.913Z,55.90
2023-03-02T10:08:47.026Z,55.60
2023-03-02T10:11:37.626Z,55.50
2023-03-02T10:14:23.531Z,55.80
2023-03-02T10:17:32.389Z,55.80
2023-03-02T10:20:08.972Z,55.90
2023-03-02T10:22:41.874Z,56.00
2023-03-02T10:25:31.298Z,56.10
2023-03-02T10:28:10.908Z,56.00
2023-03-02T10:30:39.946Z,56.00
2023-03-02T10:33:18.741Z,55.90
2023-03-02T10:35:49.157Z,56.00
2023-03-02T10:38:19.557Z,56.00
2023-03-02T10:41:00.030Z,56.10
2023-03-02T10:43:36.850Z,56.10
2023-03-02T10:46:10.867Z,56.10
2023-03-02T10:49:01.246Z,56.10
2023-03-02T10:51:35.321Z,56.20
2023-03-02T10:54:21.069Z,56.10
2023-03-02T10:56:55.032Z,55.70
2023-03-02T10:59:45.091Z,55.60
2023-03-02T11:02:27.619Z,55.70
2023-03-02T11:05:24.025Z,55.60
2023-03-02T11:07:56.625Z,55.70
2023-03-02T11:10:31.859Z,55.50
2023-03-02T11:13:00.420Z,55.40
2023-03-02T11:15:53.374Z,55.50
2023-03-02T11:18:27.875Z,55.30
2023-03-02T11:21:18.894Z,55.40
2023-03-02T11:24:09.299Z,55.10
2023-03-02T11:27:00.840Z,55.00
2023-03-02T11:29:53.075Z,54.20
2023-03-02T11:32:57.449Z,54.00
2023-03-02T11:35:30.640Z,53.90
2023-03-02T11:38:14.586Z,53.80
2023-03-02T11:40:48.021Z,53.90
2023-03-02T11:43:15.193Z,53.80
2023-03-02T11:46:10.886Z,53.80
2023-03-02T11:48:49.285Z,53.90
2023-03-02T11:51:20.999Z,53.70
2023-03-02T11:54:04.780Z,53.80
2023-03-02T11:56:36.821Z,53.70
2023-03-02T11:59:31.440Z,53.80
2023-03-02T12:02:00.859Z,53.60
2023-03-02T12:17:25.151Z,53.10
2023-03-02T12:20:25.036Z,53.40
2023-03-02T12:23:23.493Z,53.30
2023-03-02T12:26:03.304Z,53.20
2023-03-02T12:28:36.141Z,53.20
2023-03-02T12:31:09.766Z,53.10
2023-03-02T12:33:49.897Z,53.10
2023-03-02T12:36:20.517Z,53.00
2023-03-02T12:39:00.036Z,52.90
2023-03-02T12:41:57.902Z,53.00
2023-03-02T12:44:58.765Z,52.90
2023-03-02T12:47:49.588Z,52.70
2023-03-02T12:50:30.256Z,52.70
2023-03-02T12:53:15.430Z,52.80
2023-03-02T12:55:42.482Z,52.70
2023-03-02T12:58:21.688Z,52.60
2023-03-02T13:01:00.707Z,52.60
2023-03-02T13:03:30.247Z,52.60
2023-03-02T13:06:11.085Z,53.20
2023-03-02T13:08:38.473Z,52.50
2023-03-02T13:11:05.796Z,52.30
2023-03-02T13:13:32.685Z,52.30
2023-03-02T13:16:02.380Z,52.90
2023-03-02T13:18:33.184Z,52.20
2023-03-02T13:21:01.485Z,52.10
2023-03-02T13:23:30.974Z,52.10
2023-03-02T13:26:04.339Z,52.10
2023-03-02T13:28:36.754Z,52.20
2023-03-02T13:31:22.302Z,52.10
2023-03-02T13:33:52.444Z,52.10
2023-03-02T13:36:28.748Z,52.10
2023-03-02T13:38:59.357Z,51.90
2023-03-02T13:41:32.238Z,51.90
2023-03-02T13:44:11.307Z,52.00
2023-03-02T13:46:41.044Z,51.80
2023-03-02T13:49:11.582Z,51.70
2023-03-02T13:51:47.413Z,51.70
2023-03-02T13:54:22.673Z,51.60
2023-03-02T13:56:51.309Z,51.60
2023-03-02T13:59:20.258Z,51.40
2023-03-02T14:01:47.312Z,51.60
2023-03-02T14:04:19.093Z,51.50
2023-03-02T14:06:46.123Z,51.70
2023-03-02T14:09:13.852Z,51.70
2023-03-02T14:11:43.887Z,51.80
2023-03-02T14:14:23.283Z,51.50
2023-03-02T14:16:50.932Z,51.40
2023-03-02T14:19:20.856Z,51.40
2023-03-02T14:21:48.181Z,51.50
2023-03-02T14:24:15.200Z,51.50
2023-03-02T14:26:49.636Z,51.40
2023-03-02T14:29:29.290Z,51.40
2023-03-02T14:32:00.168Z,51.50
2023-03-02T14:34:27.327Z,51.40
2023-03-02T14:36:57.464Z,51.10
2023-03-02T14:39:38.895Z,51.10
2023-03-02T14:42:11.376Z,51.30
2023-03-02T14:44:38.352Z,51.30
2023-03-02T14:47:05.390Z,51.20
2023-03-02T14:49:32.323Z,51.10
2023-03-02T14:52:13.747Z,51.00
2023-03-02T14:54:48.286Z,50.90
2023-03-02T14:57:21.516Z,51.00
2023-03-02T14:59:49.365Z,50.80
2023-03-02T15:02:25.149Z,51.00
2023-03-02T15:04:56.134Z,50.90
2023-03-02T15:07:23.956Z,51.00
2023-03-02T15:09:50.874Z,51.10
2023-03-02T15:12:17.966Z,51.00
2023-03-02T15:14:44.942Z,50.90
2023-03-02T15:17:12.082Z,50.90
2023-03-02T15:19:39.162Z,50.80
2023-03-02T15:22:06.066Z,50.70
2023-03-02T15:24:33.628Z,50.70
2023-03-02T15:27:00.808Z,50.60
2023-03-02T15:29:27.885Z,50.60
2023-03-02T15:31:55.010Z,50.40
2023-03-02T15:34:22.114Z,50.40
2023-03-02T15:36:49.147Z,50.40
2023-03-02T15:39:16.809Z,50.50
2023-03-02T15:41:43.931Z,50.30
2023-03-02T15:44:22.210Z,50.40
2023-03-02T15:46:51.724Z,50.30
2023-03-02T15:49:24.520Z,50.50
2023-03-02T15:51:52.231Z,50.50
2023-03-02T15:54:19.506Z,50.40
2023-03-02T15:56:51.922Z,50.20
2023-03-02T15:59:29.531Z,50.30
2023-03-02T16:02:02.069Z,50.40
2023-03-02T16:04:30.759Z,50.50
2023-03-02T16:06:57.888Z,50.50
2023-03-02T16:09:26.150Z,50.40
2023-03-02T16:11:53.295Z,50.50
2023-03-02T16:14:20.462Z,50.50
2023-03-02T16:16:47.945Z,50.50
2023-03-02T16:19:18.997Z,50.50
2023-03-02T16:21:47.501Z,50.60
2023-03-02T16:24:16.276Z,50.50
2023-03-02T16:26:44.670Z,50.50
2023-03-02T16:29:12.318Z,50.50
2023-03-02T16:31:39.858Z,50.40
2023-03-02T16:34:10.375Z,50.50
2023-03-02T16:36:39.574Z,50.50
2023-03-02T16:39:08.145Z,50.50
2023-03-02T16:41:36.055Z,50.60
2023-03-02T16:44:21.244Z,50.70
2023-03-02T16:46:48.312Z,50.60
2023-03-02T16:49:33.774Z,50.70
2023-03-02T16:52:00.896Z,50.70
2023-03-02T16:54:27.901Z,50.60
2023-03-02T16:57:13.313Z,50.60
2023-03-02T16:59:41.222Z,50.60
2023-03-02T17:02:09.812Z,50.50
2023-03-02T17:04:37.359Z,50.50
2023-03-02T17:07:05.707Z,50.50
2023-03-02T17:09:35.967Z,50.60
2023-03-02T17:12:03.316Z,50.50
2023-03-02T17:14:30.495Z,50.50
2023-03-02T17:16:57.945Z,50.40
2023-03-02T17:19:27.094Z,50.40
2023-03-02T17:21:57.244Z,50.40
2023-03-02T17:24:24.229Z,50.40
2023-03-02T17:26:51.126Z,50.30
2023-03-02T17:29:18.217Z,50.30
2023-03-02T17:31:45.435Z,50.30
2023-03-02T17:34:12.941Z,50.20
2023-03-02T17:36:40.968Z,50.30
2023-03-02T17:39:08.474Z,50.40
2023-03-02T17:41:36.256Z,50.40
2023-03-02T17:44:04.142Z,50.50
2023-03-02T17:46:32.633Z,50.40
2023-03-02T17:49:00.979Z,50.40
2023-03-02T17:51:29.014Z,50.50
2023-03-02T17:53:56.703Z,50.50
2023-03-02T17:56:26.242Z,50.50
2023-03-02T17:59:12.561Z,50.60
2023-03-02T18:01:39.742Z,50.60
2023-03-02T18:04:07.214Z,50.50
2023-03-02T18:06:34.779Z,50.60
2023-03-02T18:09:01.801Z,50.40
2023-03-02T18:11:31.864Z,50.40
2023-03-02T18:14:04.936Z,50.50
2023-03-02T18:16:34.009Z,50.60
2023-03-02T18:19:01.939Z,50.70
2023-03-02T18:21:29.287Z,50.80
2023-03-02T18:23:59.473Z,50.60
2023-03-02T18:26:29.536Z,50.70
2023-03-02T18:28:56.654Z,50.80
2023-03-02T18:31:24.009Z,50.80
2023-03-02T18:34:10.155Z,50.90
2023-03-02T18:36:37.424Z,51.00
2023-03-02T18:39:04.932Z,51.10
2023-03-02T18:41:34.527Z,51.20
2023-03-02T18:44:17.907Z,51.30
2023-03-02T18:46:45.112Z,51.40
2023-03-02T18:49:12.109Z,51.40
2023-03-02T18:51:39.082Z,51.50
2023-03-02T18:54:06.070Z,51.50
2023-03-02T18:56:32.989Z,51.40
2023-03-02T18:58:59.909Z,51.40
2023-03-02T19:01:32.089Z,51.60
2023-03-02T19:04:00.738Z,51.80
2023-03-02T19:06:31.324Z,51.80
2023-03-02T19:09:17.321Z,51.80
2023-03-02T19:11:44.330Z,51.70
2023-03-02T19:14:30.205Z,51.70
2023-03-02T19:16:57.421Z,51.90
2023-03-02T19:19:25.540Z,51.90
2023-03-02T19:21:52.564Z,52.20
2023-03-02T19:24:19.574Z,52.10
2023-03-02T19:26:46.540Z,52.10
2023-03-02T19:29:31.796Z,52.20
2023-03-02T19:31:58.933Z,52.10
2023-03-02T19:34:25.970Z,52.80
2023-03-02T19:36:53.070Z,52.20
2023-03-02T19:39:20.616Z,52.30
2023-03-02T19:41:49.801Z,52.40
2023-03-02T19:44:16.751Z,52.40
2023-03-02T19:46:43.711Z,52.40
2023-03-02T19:49:16.337Z,52.40
2023-03-02T19:51:43.298Z,52.40
2023-03-02T19:54:10.287Z,52.60
2023-03-02T19:56:40.251Z,52.90
2023-03-02T19:59:08.414Z,53.20
2023-03-02T20:01:36.458Z,53.50
2023-03-02T20:04:12.159Z,53.60
2023-03-02T20:06:39.137Z,53.70
2023-03-02T20:09:08.251Z,53.80
2023-03-02T20:11:35.424Z,54.10
2023-03-02T20:14:08.630Z,54.10
2023-03-02T20:16:36.527Z,54.20
2023-03-02T20:19:22.407Z,54.30
2023-03-02T20:21:49.509Z,54.40
2023-03-02T20:24:16.981Z,54.40
2023-03-02T20:27:03.404Z,54.50
2023-03-02T20:29:30.549Z,54.70
2023-03-02T20:31:58.109Z,54.70
2023-03-02T20:34:25.164Z,54.90
2023-03-02T20:36:52.230Z,54.90
2023-03-02T20:39:40.821Z,54.90
2023-03-02T20:42:12.810Z,55.00
2023-03-02T20:44:39.876Z,54.90
2023-03-02T20:47:11.853Z,54.80
2023-03-02T20:49:39.307Z,54.90
2023-03-02T20:52:08.012Z,55.00
2023-03-02T20:54:39.377Z,55.00
2023-03-02T20:57:08.630Z,55.10
2023-03-02T20:59:54.524Z,55.20
2023-03-02T21:02:23.252Z,55.20
2023-03-02T21:04:50.209Z,55.40
2023-03-02T21:07:35.945Z,55.40
2023-03-02T21:10:09.139Z,55.60
2023-03-02T21:12:36.453Z,55.60
2023-03-02T21:15:04.998Z,55.40
2023-03-02T21:17:32.057Z,55.60
2023-03-02T21:19:59.149Z,55.60
2023-03-02T21:22:26.188Z,55.70
2023-03-02T21:24:53.181Z,55.70
2023-03-02T21:27:22.888Z,55.70
2023-03-02T21:29:49.953Z,55.80
2023-03-02T21:32:17.529Z,55.80
2023-03-02T21:34:47.112Z,56.00
2023-03-02T21:37:32.804Z,56.00
2023-03-02T21:40:00.149Z,56.20
2023-03-02T21:42:27.347Z,56.30
2023-03-02T21:44:54.340Z,56.40
2023-03-02T21:47:21.346Z,56.40
2023-03-02T21:49:50.997Z,56.40
2023-03-02T21:52:18.178Z,56.40
2023-03-02T21:54:48.017Z,56.40
2023-03-02T21:57:14.929Z,56.50
2023-03-02T21:59:41.907Z,56.50
2023-03-02T22:02:09.684Z,56.50
2023-03-02T22:04:39.901Z,56.70
2023-03-02T22:07:06.842Z,56.80
2023-03-02T22:09:36.489Z,56.90
2023-03-02T22:12:23.101Z,57.00
2023-03-02T22:14:53.168Z,57.20
2023-03-02T22:17:23.255Z,57.20
2023-03-02T22:19:53.494Z,57.40
2023-03-02T22:22:30.664Z,57.40
2023-03-02T22:24:58.031Z,57.60
2023-03-02T22:27:27.454Z,57.70
2023-03-02T22:29:58.006Z,57.70
2023-03-02T22:32:37.002Z,57.90
2023-03-02T22:35:21.250Z,57.80
2023-03-02T22:37:48.747Z,58.00
2023-03-02T22:40:21.850Z,57.80
2023-03-02T22:42:49.246Z,58.00
2023-03-02T22:45:21.953Z,58.00
2023-03-02T22:47:51.533Z,58.10
2023-03-02T22:50:28.079Z,58.10
2023-03-02T22:52:56.915Z,58.20
2023-03-02T22:55:43.336Z,58.20
2023-03-02T22:58:31.812Z,58.30
2023-03-02T23:01:00.544Z,58.40
2023-03-02T23:03:42.833Z,58.40
2023-03-02T23:06:28.936Z,58.60
2023-03-02T23:09:04.558Z,58.50
2023-03-02T23:11:38.762Z,58.30
2023-03-02T23:14:25.576Z,58.10
2023-03-02T23:17:15.195Z,57.90
2023-03-02T23:19:42.282Z,57.90
2023-03-02T23:22:29.877Z,58.90
2023-03-02T23:24:57.163Z,59.20
2023-03-02T23:27:42.781Z,59.20
2023-03-02T23:30:10.299Z,59.40
2023-03-02T23:32:56.151Z,59.50
2023-03-02T23:35:23.217Z,59.70
2023-03-02T23:37:50.238Z,59.70
2023-03-02T23:40:17.256Z,59.70
2023-03-02T23:42:44.203Z,59.90
2023-03-02T23:45:11.586Z,59.80
2023-03-02T23:47:47.350Z,59.90
2023-03-02T23:50:14.531Z,60.00
2023-03-02T23:52:41.536Z,60.00
2023-03-02T23:55:09.490Z,60.00
2023-03-02T23:57:36.468Z,60.10
